Terminal Aerodrome Forecast
Issued by NWS

Current Version | Previous Version | Graphics & Text | Print | Product List | Glossary On
Versions: 1 2 3 4 5 6 7 8 9 10 11 12 13 14 15 16 17 18 19 20 21 22 23 24 25
728
FTUS41 KRNK 270520
TAFLWB
TAF
KLWB 270520Z 2706/2806 00000KT P6SM OVC040
      TEMPO 2706/2708 5SM -SHRA
     FM271000 00000KT 6SM BR VCSH BKN070
      TEMPO 2710/2713 4SM -SHRA OVC025
     FM271600 23006KT P6SM BKN040
     FM272000 24006KT P6SM BKN150
     FM280000 00000KT P6SM BKN080=

USA.gov is the U.S. government's official web portal to all federal, state and local government web resources and services.